Vinnings, Georgia
Current Conditions -  °F | °C
As of 4:58 PM on Wednesday 22 Oct 2014 (Local Time) from KMGE Reporting Station
Clear Clear  
Wind Chill: 68°   Ceiling: Unl
Heat Index: 68°   Visibility: 10mi
Dew Point: 44°   Wind: 13mph
Humidity: 41%   Direction: 300°WNW
Pressure: 30.06"   Gusts: NA
Location:  33.8691°N, 84.4633°W
Report Text: KMGE 222058Z 30011KT 10SM CLR 20/07 A3006 RMK AO2A SLP177 T02000065 57010 $
Loading
Personal Weather Stations






























Interactive Weather Map
Tropical Storm Tracking
New forecast layout! Learn more

10-Day Weather Forecast

Advertisements
Track Severe Weather on mobile